createdAt,value
2016-05-21T00:00:17.123Z,0
2016-05-21T00:01:17.281Z,0
2016-05-21T00:02:17.284Z,0
2016-05-21T00:03:17.131Z,0
2016-05-21T00:04:17.289Z,0
2016-05-21T00:05:17.277Z,0
2016-05-21T00:06:17.122Z,0
2016-05-21T00:07:17.283Z,0
2016-05-21T00:08:17.285Z,0
2016-05-21T00:09:17.303Z,0
2016-05-21T00:10:17.290Z,0
2016-05-21T00:11:17.445Z,0
2016-05-21T00:12:17.167Z,0
2016-05-21T00:13:17.326Z,0
2016-05-21T00:14:17.188Z,0
2016-05-21T00:15:17.347Z,0
2016-05-21T00:16:17.374Z,0
2016-05-21T00:17:17.210Z,0
2016-05-21T00:18:17.375Z,0
2016-05-21T00:19:17.383Z,0
2016-05-21T00:20:17.235Z,0
2016-05-21T00:21:17.397Z,0
2016-05-21T00:22:17.247Z,0
2016-05-21T00:23:17.392Z,0
2016-05-21T00:24:17.398Z,0
2016-05-21T00:25:17.261Z,0
2016-05-21T00:26:18.468Z,0
2016-05-21T00:27:17.238Z,0
2016-05-21T00:28:17.413Z,0
2016-05-21T00:29:17.416Z,0
2016-05-21T00:30:17.403Z,0
2016-05-21T00:31:17.407Z,0
2016-05-21T00:32:17.410Z,0
2016-05-21T00:33:17.240Z,0
2016-05-21T00:34:17.259Z,0
2016-05-21T00:35:17.418Z,0
2016-05-21T00:36:17.405Z,0
2016-05-21T00:37:17.408Z,0
2016-05-21T00:38:17.395Z,0
2016-05-21T00:39:17.413Z,0
2016-05-21T00:40:17.244Z,0
2016-05-21T00:41:17.262Z,0
2016-05-21T00:42:17.249Z,0
2016-05-21T00:43:17.408Z,0
2016-05-21T00:44:17.410Z,0
2016-05-21T00:45:17.242Z,0
2016-05-21T00:46:17.417Z,0
2016-05-21T00:47:17.263Z,0
2016-05-21T00:48:17.406Z,0
2016-05-21T00:49:17.252Z,0
2016-05-21T00:50:17.411Z,0
2016-05-21T00:51:17.399Z,0
2016-05-21T00:52:17.260Z,0
2016-05-21T00:53:17.404Z,0
2016-05-21T00:54:17.234Z,0
2016-05-21T00:55:17.424Z,0
2016-05-21T00:56:17.287Z,0
2016-05-21T00:57:17.398Z,0
2016-05-21T00:58:17.260Z,0
2016-05-21T00:59:17.404Z,0
2016-05-21T01:00:17.407Z,0
2016-05-21T01:01:17.394Z,0
2016-05-21T01:02:17.412Z,0
2016-05-21T01:03:17.399Z,0
2016-05-21T01:04:17.402Z,0
2016-05-21T01:05:17.248Z,0
2016-05-21T01:06:17.407Z,0
2016-05-21T01:07:17.410Z,0
2016-05-21T01:08:17.397Z,0
2016-05-21T01:09:17.244Z,0
2016-05-21T01:10:17.402Z,0
2016-05-21T01:11:17.249Z,0
2016-05-21T01:12:17.392Z,0
2016-05-21T01:13:17.394Z,0
2016-05-21T01:14:17.242Z,0
2016-05-21T01:15:17.385Z,0
2016-05-21T01:16:17.403Z,0
2016-05-21T01:17:17.422Z,0
2016-05-21T01:18:17.393Z,0
2016-05-21T01:19:17.411Z,0
2016-05-21T01:20:17.102Z,0
2016-05-21T01:21:17.088Z,0
2016-05-21T01:22:17.404Z,0
2016-05-21T01:23:17.407Z,0
2016-05-21T01:24:17.393Z,0
2016-05-21T01:25:17.396Z,0
2016-05-21T01:26:17.476Z,0
2016-05-21T01:27:17.401Z,0
2016-05-21T01:28:17.388Z,0
2016-05-21T01:29:17.266Z,0
2016-05-21T01:30:17.441Z,0
2016-05-21T01:31:17.396Z,0
2016-05-21T01:32:17.415Z,0
2016-05-21T01:33:17.387Z,0
2016-05-21T01:34:17.404Z,0
2016-05-21T01:35:17.423Z,0
2016-05-21T01:36:17.238Z,0
2016-05-21T01:37:17.412Z,0
2016-05-21T01:38:17.400Z,0
2016-05-21T01:39:17.278Z,0
2016-05-21T01:40:17.405Z,0
2016-05-21T01:41:17.767Z,0
2016-05-21T01:42:17.395Z,0
2016-05-21T01:43:17.242Z,0
2016-05-21T01:44:17.245Z,0
2016-05-21T01:45:17.403Z,0
2016-05-21T01:46:17.234Z,0
2016-05-21T01:47:17.408Z,0
2016-05-21T01:48:17.395Z,0
2016-05-21T01:49:17.398Z,0
2016-05-21T01:50:17.400Z,0
2016-05-21T01:51:17.403Z,0
2016-05-21T01:52:17.234Z,0
2016-05-21T01:53:17.393Z,0
2016-05-21T01:54:17.396Z,0
2016-05-21T01:55:17.383Z,0
2016-05-21T01:56:17.417Z,0
2016-05-21T01:57:17.248Z,0
2016-05-21T01:58:17.407Z,0
2016-05-21T01:59:17.394Z,0
2016-05-21T02:00:17.240Z,0
2016-05-21T02:01:17.243Z,0
2016-05-21T02:02:17.386Z,0
2016-05-21T02:03:17.373Z,0
2016-05-21T02:04:17.392Z,0
2016-05-21T02:05:17.378Z,0
2016-05-21T02:06:17.225Z,0
2016-05-21T02:07:17.384Z,0
2016-05-21T02:08:17.245Z,0
2016-05-21T02:09:17.405Z,0
2016-05-21T02:10:17.236Z,0
2016-05-21T02:11:17.707Z,0
2016-05-21T02:12:17.398Z,0
2016-05-21T02:13:17.384Z,0
2016-05-21T02:14:17.247Z,0
2016-05-21T02:15:17.390Z,0
2016-05-21T02:16:17.220Z,0
2016-05-21T02:17:17.239Z,0
2016-05-21T02:18:17.382Z,0
2016-05-21T02:19:17.369Z,0
2016-05-21T02:20:17.231Z,0
2016-05-21T02:21:17.250Z,0
2016-05-21T02:22:17.393Z,0
2016-05-21T02:23:17.396Z,0
2016-05-21T02:24:17.211Z,0
2016-05-21T02:25:17.402Z,0
2016-05-21T02:26:17.419Z,0
2016-05-21T02:27:17.390Z,0
2016-05-21T02:28:17.394Z,0
2016-05-21T02:29:17.380Z,0
2016-05-21T02:30:17.383Z,0
2016-05-21T02:31:17.230Z,0
2016-05-21T02:32:17.232Z,0
2016-05-21T02:33:17.391Z,0
2016-05-21T02:34:17.237Z,0
2016-05-21T02:35:17.397Z,0
2016-05-21T02:36:17.086Z,0
2016-05-21T02:37:17.402Z,0
2016-05-21T02:38:17.390Z,0
2016-05-21T02:39:17.376Z,0
2016-05-21T02:40:17.223Z,0
2016-05-21T02:41:17.928Z,0
2016-05-21T02:42:17.384Z,0
2016-05-21T02:43:17.387Z,0
2016-05-21T02:44:17.389Z,0
2016-05-21T02:45:17.377Z,0
2016-05-21T02:46:17.379Z,0
2016-05-21T02:47:17.366Z,0
2016-05-21T02:48:17.385Z,0
2016-05-21T02:49:17.388Z,0
2016-05-21T02:50:17.375Z,0
2016-05-21T02:51:17.393Z,0
2016-05-21T02:52:17.411Z,0
2016-05-21T02:53:17.227Z,0
2016-05-21T02:54:17.416Z,0
2016-05-21T02:55:18.560Z,0
2016-05-21T02:56:17.453Z,0
2016-05-21T02:57:17.362Z,0
2016-05-21T02:58:17.380Z,0
2016-05-21T02:59:17.383Z,0
2016-05-21T03:00:17.386Z,0
2016-05-21T03:01:17.388Z,0
2016-05-21T03:02:17.390Z,0
2016-05-21T03:03:17.238Z,0
2016-05-21T03:04:17.381Z,4
2016-05-21T03:05:17.384Z,4
2016-05-21T03:06:17.386Z,0
2016-05-21T03:07:17.357Z,0
2016-05-21T03:08:17.360Z,4
2016-05-21T03:09:17.363Z,4
2016-05-21T03:10:17.365Z,4
2016-05-21T03:11:17.681Z,4
2016-05-21T03:12:17.371Z,4
2016-05-21T03:13:17.061Z,8
2016-05-21T03:14:17.376Z,8
2016-05-21T03:15:17.379Z,8
2016-05-21T03:16:17.381Z,8
2016-05-21T03:17:17.400Z,12
2016-05-21T03:18:17.387Z,12
2016-05-21T03:19:17.218Z,16
2016-05-21T03:20:17.206Z,16
2016-05-21T03:21:17.364Z,20
2016-05-21T03:22:17.367Z,24
2016-05-21T03:23:17.355Z,24
2016-05-21T03:24:17.232Z,32
2016-05-21T03:25:17.375Z,32
2016-05-21T03:26:17.487Z,40
2016-05-21T03:27:17.366Z,44
2016-05-21T03:28:17.368Z,48
2016-05-21T03:29:17.370Z,56
2016-05-21T03:30:17.357Z,60
2016-05-21T03:31:17.391Z,68
2016-05-21T03:32:17.393Z,76
2016-05-21T03:33:17.365Z,84
2016-05-21T03:34:17.368Z,92
2016-05-21T03:35:17.371Z,104
2016-05-21T03:36:17.357Z,112
2016-05-21T03:37:17.220Z,128
2016-05-21T03:38:17.207Z,144
2016-05-21T03:39:16.881Z,156
2016-05-21T03:40:17.368Z,172
2016-05-21T03:41:17.231Z,192
2016-05-21T03:42:17.373Z,212
2016-05-21T03:43:17.361Z,232
2016-05-21T03:44:17.348Z,256
2016-05-21T03:45:17.366Z,288
2016-05-21T03:46:17.353Z,316
2016-05-21T03:47:17.356Z,348
2016-05-21T03:48:17.375Z,376
2016-05-21T03:49:17.361Z,412
2016-05-21T03:50:17.364Z,448
2016-05-21T03:51:17.195Z,484
2016-05-21T03:52:17.369Z,516
2016-05-21T03:53:17.044Z,552
2016-05-21T03:54:17.219Z,584
2016-05-21T03:55:17.377Z,624
2016-05-21T03:56:17.083Z,672
2016-05-21T03:57:17.039Z,736
2016-05-21T03:58:17.355Z,812
2016-05-21T03:59:17.201Z,884
2016-05-21T04:00:17.188Z,940
2016-05-21T04:01:17.362Z,1008
2016-05-21T04:02:17.349Z,1092
2016-05-21T04:03:17.352Z,1188
2016-05-21T04:04:17.355Z,1268
2016-05-21T04:05:17.357Z,1332
2016-05-21T04:06:17.204Z,1392
2016-05-21T04:07:17.363Z,1432
2016-05-21T04:08:17.193Z,1452
2016-05-21T04:09:17.212Z,1488
2016-05-21T04:10:17.356Z,1544
2016-05-21T04:11:17.373Z,1600
2016-05-21T04:12:17.361Z,1648
2016-05-21T04:13:17.348Z,1688
2016-05-21T04:14:17.351Z,1728
2016-05-21T04:15:17.354Z,1776
2016-05-21T04:16:17.356Z,1828
2016-05-21T04:17:17.343Z,1900
2016-05-21T04:18:17.345Z,1996
2016-05-21T04:19:17.364Z,2084
2016-05-21T04:20:17.351Z,2188
2016-05-21T04:21:17.354Z,2340
2016-05-21T04:22:17.356Z,2532
2016-05-21T04:23:17.359Z,2708
2016-05-21T04:24:17.346Z,2824
2016-05-21T04:25:17.350Z,2772
2016-05-21T04:26:17.538Z,2712
2016-05-21T04:27:17.182Z,2760
2016-05-21T04:28:17.044Z,2912
2016-05-21T04:29:17.047Z,3028
2016-05-21T04:30:17.363Z,3084
2016-05-21T04:31:17.052Z,3180
2016-05-21T04:32:17.352Z,3276
2016-05-21T04:33:17.354Z,3252
2016-05-21T04:34:17.201Z,3320
2016-05-21T04:35:17.188Z,3352
2016-05-21T04:36:17.206Z,3320
2016-05-21T04:37:17.366Z,3428
2016-05-21T04:38:17.352Z,3748
2016-05-21T04:39:17.355Z,3996
2016-05-21T04:40:17.202Z,3940
2016-05-21T04:41:17.798Z,4120
2016-05-21T04:42:17.363Z,4352
2016-05-21T04:43:17.381Z,4500
2016-05-21T04:44:17.212Z,4700
2016-05-21T04:45:17.200Z,4916
2016-05-21T04:46:17.359Z,4904
2016-05-21T04:47:17.361Z,5024
2016-05-21T04:48:17.192Z,5060
2016-05-21T04:49:17.351Z,4992
2016-05-21T04:50:17.214Z,4932
2016-05-21T04:51:17.356Z,4964
2016-05-21T04:52:17.359Z,4944
2016-05-21T04:53:17.361Z,5064
2016-05-21T04:54:17.364Z,4956
2016-05-21T04:55:17.239Z,5028
2016-05-21T04:56:18.183Z,5404
2016-05-21T04:57:17.370Z,5636
2016-05-21T04:58:17.357Z,5844
2016-05-21T04:59:17.359Z,5724
2016-05-21T05:00:17.378Z,5480
2016-05-21T05:01:17.365Z,5972
2016-05-21T05:02:17.368Z,7048
2016-05-21T05:03:17.370Z,7544
2016-05-21T05:04:17.373Z,7792
2016-05-21T05:05:17.391Z,7928
2016-05-21T05:06:17.379Z,8324
2016-05-21T05:07:17.224Z,8552
2016-05-21T05:08:17.384Z,8648
2016-05-21T05:09:17.386Z,9468
2016-05-21T05:10:17.218Z,9784
2016-05-21T05:11:17.110Z,10336
2016-05-21T05:12:17.379Z,10460
2016-05-21T05:13:17.382Z,10468
2016-05-21T05:14:17.384Z,10572
2016-05-21T05:15:17.231Z,10964
2016-05-21T05:16:17.390Z,11224
2016-05-21T05:17:17.393Z,11492
2016-05-21T05:18:17.395Z,12444
2016-05-21T05:19:17.398Z,13180
2016-05-21T05:20:17.244Z,14104
2016-05-21T05:21:17.262Z,14512
2016-05-21T05:22:17.406Z,14788
2016-05-21T05:23:17.392Z,15448
2016-05-21T05:24:17.411Z,15684
2016-05-21T05:25:17.445Z,15900
2016-05-21T05:26:17.432Z,14388
2016-05-21T05:27:17.419Z,16896
2016-05-21T05:28:17.266Z,12504
2016-05-21T05:29:17.424Z,16012
2016-05-21T05:30:17.428Z,16240
2016-05-21T05:31:17.414Z,16764
2016-05-21T05:32:17.432Z,15376
2016-05-21T05:33:17.122Z,17152
2016-05-21T05:34:17.438Z,19776
2016-05-21T05:35:17.285Z,20352
2016-05-21T05:36:17.443Z,18816
2016-05-21T05:37:17.447Z,22176
2016-05-21T05:38:17.292Z,21376
2016-05-21T05:39:17.451Z,21600
2016-05-21T05:40:17.454Z,21120
2016-05-21T05:41:17.473Z,22336
2016-05-21T05:42:17.303Z,21920
2016-05-21T05:43:17.149Z,20512
2016-05-21T05:44:17.481Z,20352
2016-05-21T05:45:17.468Z,21056
2016-05-21T05:46:17.314Z,22880
2016-05-21T05:47:17.489Z,22752
2016-05-21T05:48:17.475Z,20832
2016-05-21T05:49:17.353Z,22336
2016-05-21T05:50:17.481Z,23648
2016-05-21T05:51:17.500Z,26016
2016-05-21T05:52:17.502Z,27072
2016-05-21T05:53:17.364Z,26464
2016-05-21T05:54:17.508Z,24928
2016-05-21T05:55:17.369Z,26368
2016-05-21T05:56:17.528Z,28736
2016-05-21T05:57:17.531Z,30464
2016-05-21T05:58:17.550Z,28224
2016-05-21T05:59:17.552Z,28384
2016-05-21T06:00:17.367Z,28224
2016-05-21T06:01:17.385Z,30944
2016-05-21T06:02:17.544Z,31264
2016-05-21T06:03:17.547Z,31552
2016-05-21T06:04:17.566Z,30368
2016-05-21T06:05:17.553Z,30592
2016-05-21T06:06:17.571Z,31360
2016-05-21T06:07:17.574Z,30560
2016-05-21T06:08:17.591Z,31072
2016-05-21T06:09:17.579Z,31168
2016-05-21T06:10:17.441Z,29856
2016-05-21T06:11:17.850Z,31776
2016-05-21T06:12:17.602Z,32768
2016-05-21T06:13:17.621Z,33344
2016-05-21T06:14:17.608Z,35968
2016-05-21T06:15:17.626Z,35776
2016-05-21T06:16:17.629Z,36512
2016-05-21T06:17:17.648Z,38176
2016-05-21T06:18:17.634Z,38496
2016-05-21T06:19:17.496Z,39904
2016-05-21T06:20:17.656Z,39968
2016-05-21T06:21:17.345Z,39392
2016-05-21T06:22:17.520Z,39136
2016-05-21T06:23:17.664Z,37952
2016-05-21T06:24:17.682Z,36192
2016-05-21T06:25:17.684Z,35168
2016-05-21T06:26:17.531Z,33216
2016-05-21T06:27:17.534Z,32256
2016-05-21T06:28:17.724Z,31456
2016-05-21T06:29:17.711Z,30048
2016-05-21T06:30:17.714Z,32864
2016-05-21T06:31:17.747Z,34624
2016-05-21T06:32:17.750Z,32448
2016-05-21T06:33:17.580Z,32736
2016-05-21T06:34:17.755Z,30880
2016-05-21T06:35:17.446Z,26336
2016-05-21T06:36:17.761Z,24832
2016-05-21T06:37:17.780Z,23808
2016-05-21T06:38:17.782Z,22976
2016-05-21T06:39:17.629Z,24800
2016-05-21T06:40:17.788Z,26912
2016-05-21T06:41:18.306Z,28800
2016-05-21T06:42:17.667Z,31168
2016-05-21T06:43:17.811Z,32864
2016-05-21T06:44:17.829Z,36384
2016-05-21T06:45:17.832Z,40384
2016-05-21T06:46:17.678Z,44736
2016-05-21T06:47:17.696Z,46336
2016-05-21T06:48:17.871Z,45728
2016-05-21T06:49:17.874Z,46016
2016-05-21T06:50:17.893Z,45440
2016-05-21T06:51:17.895Z,45216
2016-05-21T06:52:17.898Z,40480
2016-05-21T06:53:17.900Z,37760
2016-05-21T06:54:17.919Z,40512
2016-05-21T06:55:17.922Z,42720
2016-05-21T06:56:17.987Z,45440
2016-05-21T06:57:17.786Z,44896
2016-05-21T06:58:17.961Z,43264
2016-05-21T06:59:17.948Z,42752
2016-05-21T07:00:17.966Z,41824
2016-05-21T07:01:17.969Z,43136
2016-05-21T07:02:17.987Z,42784
2016-05-21T07:03:18.005Z,45696
2016-05-21T07:04:18.024Z,44960
2016-05-21T07:05:17.870Z,44768
2016-05-21T07:06:18.014Z,45568
2016-05-21T07:07:17.875Z,45472
2016-05-21T07:08:18.050Z,45216
2016-05-21T07:09:18.053Z,43520
2016-05-21T07:10:18.071Z,44768
2016-05-21T07:11:17.964Z,45952
2016-05-21T07:12:18.093Z,45888
2016-05-21T07:13:18.095Z,46272
2016-05-21T07:14:18.113Z,47136
2016-05-21T07:15:17.960Z,48224
2016-05-21T07:16:17.962Z,47520
2016-05-21T07:17:17.824Z,47488
2016-05-21T07:18:18.155Z,47840
2016-05-21T07:19:18.143Z,46752
2016-05-21T07:20:18.160Z,45632
2016-05-21T07:21:18.179Z,47648
2016-05-21T07:22:18.182Z,49024
2016-05-21T07:23:18.028Z,46688
2016-05-21T07:24:18.046Z,44256
2016-05-21T07:25:18.220Z,42880
2016-05-21T07:26:18.412Z,42560
2016-05-21T07:27:18.242Z,43808
2016-05-21T07:28:18.260Z,44416
2016-05-21T07:29:18.264Z,46368
2016-05-21T07:30:18.266Z,48640
2016-05-21T07:31:18.112Z,46464
2016-05-21T07:32:18.115Z,44608
2016-05-21T07:33:18.305Z,44768
2016-05-21T07:34:18.308Z,40320
2016-05-21T07:35:18.154Z,40512
2016-05-21T07:36:18.188Z,42144
2016-05-21T07:37:18.331Z,41472
2016-05-21T07:38:18.349Z,43840
2016-05-21T07:39:18.211Z,42816
2016-05-21T07:40:18.371Z,39616
2016-05-21T07:41:18.217Z,36736
2016-05-21T07:42:18.407Z,37024
2016-05-21T07:43:18.410Z,39936
2016-05-21T07:44:18.413Z,36352
2016-05-21T07:45:18.415Z,33792
2016-05-21T07:46:18.434Z,28864
2016-05-21T07:47:18.437Z,31168
2016-05-21T07:48:18.440Z,33152
2016-05-21T07:49:18.473Z,34016
2016-05-21T07:50:18.476Z,25376
2016-05-21T07:51:18.479Z,30880
2016-05-21T07:52:18.496Z,29952
2016-05-21T07:53:18.483Z,27872
2016-05-21T07:54:18.362Z,27456
2016-05-21T07:55:18.520Z,25888
2016-05-21T07:56:18.757Z,26656
2016-05-21T07:57:18.542Z,29280
2016-05-21T07:58:18.544Z,32960
2016-05-21T07:59:18.562Z,34560
2016-05-21T08:00:18.565Z,31584
2016-05-21T08:01:18.428Z,32416
2016-05-21T08:02:18.586Z,34080
2016-05-21T08:03:18.605Z,34560
2016-05-21T08:04:18.607Z,36512
2016-05-21T08:05:18.469Z,37856
2016-05-21T08:06:18.659Z,37344
2016-05-21T08:07:18.491Z,37536
2016-05-21T08:08:18.633Z,39136
2016-05-21T08:09:18.652Z,38496
2016-05-21T08:10:18.499Z,38432
2016-05-21T08:11:18.360Z,36160
2016-05-21T08:12:18.519Z,40544
2016-05-21T08:13:18.710Z,40128
2016-05-21T08:14:18.696Z,38304
2016-05-21T08:15:18.716Z,36768
2016-05-21T08:16:18.717Z,31648
2016-05-21T08:17:18.721Z,39328
2016-05-21T08:18:18.754Z,33152
2016-05-21T08:19:18.757Z,27488
2016-05-21T08:20:18.760Z,32544
2016-05-21T08:21:18.762Z,36000
2016-05-21T08:22:18.609Z,41440
2016-05-21T08:23:18.768Z,44160
2016-05-21T08:24:18.801Z,45888
2016-05-21T08:25:18.648Z,45952
2016-05-21T08:26:18.823Z,46944
2016-05-21T08:27:18.794Z,46560
2016-05-21T08:28:18.687Z,40768
2016-05-21T08:29:18.846Z,42432
2016-05-21T08:30:18.849Z,42752
2016-05-21T08:31:18.851Z,44160
2016-05-21T08:32:18.870Z,43392
2016-05-21T08:33:18.888Z,43904
2016-05-21T08:34:18.875Z,34880
2016-05-21T08:35:18.878Z,19424
2016-05-21T08:36:18.897Z,8788
2016-05-21T08:37:18.915Z,7936
2016-05-21T08:38:18.777Z,7572
2016-05-21T08:39:18.780Z,7456
2016-05-21T08:40:18.954Z,7220
2016-05-21T08:41:19.191Z,6872
2016-05-21T08:42:18.850Z,6696
2016-05-21T08:43:18.837Z,6460
2016-05-21T08:44:18.824Z,6300
2016-05-21T08:45:18.843Z,6148
2016-05-21T08:46:19.016Z,5996
2016-05-21T08:47:19.004Z,5860
2016-05-21T08:48:18.866Z,5748
2016-05-21T08:49:19.025Z,5652
2016-05-21T08:50:18.887Z,5516
2016-05-21T08:51:18.890Z,5364
2016-05-21T08:52:18.892Z,5280
2016-05-21T08:53:18.910Z,5208
2016-05-21T08:54:18.945Z,5128
2016-05-21T08:55:19.088Z,5040
2016-05-21T08:56:19.793Z,4968
2016-05-21T08:57:18.968Z,4900
2016-05-21T08:58:18.971Z,4836
2016-05-21T08:59:19.115Z,4772
2016-05-21T09:00:19.133Z,2304
2016-05-21T09:01:19.151Z,2280
2016-05-21T09:02:19.138Z,2260
2016-05-21T09:03:19.157Z,2240
2016-05-21T09:04:19.019Z,2232
2016-05-21T09:05:19.021Z,2212
2016-05-21T09:06:19.181Z,2200
2016-05-21T09:07:19.198Z,2184
2016-05-21T09:08:19.186Z,2172
2016-05-21T09:09:19.204Z,2160
2016-05-21T09:10:19.207Z,2144
2016-05-21T09:11:19.334Z,2136
2016-05-21T09:12:19.306Z,2124
2016-05-21T09:13:19.246Z,2116
2016-05-21T09:14:19.108Z,2104
2016-05-21T09:15:19.111Z,2096
2016-05-21T09:16:19.254Z,2080
2016-05-21T09:17:19.116Z,2072
2016-05-21T09:18:19.282Z,2060
2016-05-21T09:19:19.306Z,2064
2016-05-21T09:20:19.344Z,2032
2016-05-21T09:21:19.368Z,2020
2016-05-21T09:22:19.392Z,2020
2016-05-21T09:23:19.401Z,2004
2016-05-21T09:24:19.428Z,1984
2016-05-21T09:25:19.439Z,1956
2016-05-21T09:26:19.746Z,1928
2016-05-21T09:27:20.053Z,1908
2016-05-21T09:28:19.495Z,1892
2016-05-21T09:29:19.328Z,1876
2016-05-21T09:30:19.506Z,1864
2016-05-21T09:31:19.386Z,1848
2016-05-21T09:32:19.517Z,1832
2016-05-21T09:33:19.521Z,1820
2016-05-21T09:34:19.524Z,1804
2016-05-21T09:35:19.529Z,1788
2016-05-21T09:36:19.392Z,1776
2016-05-21T09:37:19.411Z,1756
2016-05-21T09:38:19.242Z,1744
2016-05-21T09:39:19.590Z,1732
2016-05-21T09:40:19.576Z,1720
2016-05-21T09:41:20.298Z,1704
2016-05-21T09:42:19.615Z,1700
2016-05-21T09:43:19.446Z,1684
2016-05-21T09:44:19.588Z,1668
2016-05-21T09:45:19.590Z,1652
2016-05-21T09:46:19.609Z,1648
2016-05-21T09:47:19.596Z,1636
2016-05-21T09:48:19.615Z,1628
2016-05-21T09:49:19.618Z,1620
2016-05-21T09:50:19.619Z,1612
2016-05-21T09:51:19.623Z,1604
2016-05-21T09:52:19.641Z,1604
2016-05-21T09:53:19.503Z,1604
2016-05-21T09:54:19.489Z,1592
2016-05-21T09:55:19.649Z,1588
2016-05-21T09:56:19.527Z,1580
2016-05-21T09:57:19.576Z,1576
2016-05-21T09:58:19.672Z,1572
2016-05-21T09:59:19.675Z,1576
2016-05-21T10:00:19.663Z,1576
2016-05-21T10:01:19.680Z,1572
2016-05-21T10:02:19.527Z,1568
2016-05-21T10:03:19.686Z,1564
2016-05-21T10:04:19.533Z,1556
2016-05-21T10:05:19.691Z,1556
2016-05-21T10:06:19.538Z,1544
2016-05-21T10:07:19.697Z,1536
2016-05-21T10:08:19.715Z,1536
2016-05-21T10:09:19.718Z,1528
2016-05-21T10:10:19.737Z,1520
2016-05-21T10:11:19.582Z,1516
2016-05-21T10:12:19.726Z,1512
2016-05-21T10:13:19.573Z,1508
2016-05-21T10:14:19.731Z,1512
2016-05-21T10:15:19.750Z,1512
2016-05-21T10:16:19.736Z,1504
2016-05-21T10:17:19.756Z,1500
2016-05-21T10:18:19.758Z,1500
2016-05-21T10:19:19.603Z,1500
2016-05-21T10:20:19.763Z,1492
2016-05-21T10:21:19.767Z,1496
2016-05-21T10:22:19.769Z,1492
2016-05-21T10:23:19.615Z,1488
2016-05-21T10:24:19.790Z,1488
2016-05-21T10:25:19.792Z,1488
2016-05-21T10:26:19.950Z,1484
2016-05-21T10:27:19.813Z,1464
2016-05-21T10:28:19.800Z,1476
2016-05-21T10:29:19.803Z,1472
2016-05-21T10:30:19.805Z,1468
2016-05-21T10:31:19.808Z,1468
2016-05-21T10:32:19.827Z,1468
2016-05-21T10:33:19.674Z,1464
2016-05-21T10:34:19.816Z,1460
2016-05-21T10:35:19.835Z,1456
2016-05-21T10:36:19.822Z,1456
2016-05-21T10:37:19.685Z,1452
2016-05-21T10:38:19.843Z,1452
2016-05-21T10:39:19.846Z,1448
2016-05-21T10:40:19.849Z,1448
2016-05-21T10:41:20.335Z,1444
2016-05-21T10:42:20.134Z,1440
2016-05-21T10:43:19.856Z,1432
2016-05-21T10:44:19.859Z,1432
2016-05-21T10:45:19.893Z,1428
2016-05-21T10:46:19.864Z,1404
2016-05-21T10:47:19.867Z,1416
2016-05-21T10:48:19.885Z,1404
2016-05-21T10:49:19.888Z,1400
2016-05-21T10:50:19.890Z,1396
2016-05-21T10:51:19.909Z,1396
2016-05-21T10:52:19.912Z,1392
2016-05-21T10:53:19.899Z,1392
2016-05-21T10:54:19.901Z,1388
2016-05-21T10:55:19.889Z,1384
2016-05-21T10:56:20.595Z,1380
2016-05-21T10:57:19.770Z,1380
2016-05-21T10:58:19.911Z,1376
2016-05-21T10:59:19.931Z,1376
2016-05-21T11:00:19.777Z,1376
2016-05-21T11:01:19.936Z,1368
2016-05-21T11:02:19.938Z,1368
2016-05-21T11:03:19.942Z,1364
2016-05-21T11:04:19.788Z,1360
2016-05-21T11:05:19.946Z,1360
2016-05-21T11:06:19.933Z,1360
2016-05-21T11:07:19.952Z,1356
2016-05-21T11:08:19.955Z,1356
2016-05-21T11:09:19.941Z,1352
2016-05-21T11:10:19.960Z,1356
2016-05-21T11:11:19.963Z,1352
2016-05-21T11:12:20.325Z,1352
2016-05-21T11:13:19.968Z,1332
2016-05-21T11:14:19.971Z,1324
2016-05-21T11:15:19.833Z,1344
2016-05-21T11:16:19.992Z,1372
2016-05-21T11:17:19.995Z,1396
2016-05-21T11:18:20.013Z,1444
2016-05-21T11:19:20.015Z,1500
2016-05-21T11:20:20.003Z,1536
2016-05-21T11:21:19.834Z,1544
2016-05-21T11:22:20.023Z,1536
2016-05-21T11:23:19.854Z,1508
2016-05-21T11:24:20.014Z,1452
2016-05-21T11:25:19.859Z,1412
2016-05-21T11:26:19.706Z,1376
2016-05-21T11:27:20.755Z,1364
2016-05-21T11:28:20.025Z,1360
2016-05-21T11:29:20.042Z,1360
2016-05-21T11:30:19.873Z,1368
2016-05-21T11:31:20.032Z,1384
2016-05-21T11:32:19.878Z,1400
2016-05-21T11:33:20.038Z,1412
2016-05-21T11:34:20.056Z,1404
2016-05-21T11:35:20.043Z,1368
2016-05-21T11:36:20.077Z,1336
2016-05-21T11:37:20.049Z,1324
2016-05-21T11:38:20.067Z,1320
2016-05-21T11:39:20.069Z,1320
2016-05-21T11:40:20.057Z,1328
2016-05-21T11:41:20.059Z,1328
2016-05-21T11:42:20.421Z,1328
2016-05-21T11:43:20.079Z,1332
2016-05-21T11:44:20.083Z,1328
2016-05-21T11:45:20.085Z,1328
2016-05-21T11:46:19.932Z,1328
2016-05-21T11:47:20.107Z,1320
2016-05-21T11:48:20.094Z,1320
2016-05-21T11:49:20.096Z,1312
2016-05-21T11:50:20.099Z,1312
2016-05-21T11:51:20.101Z,1308
2016-05-21T11:52:20.104Z,1308
2016-05-21T11:53:19.967Z,1320
2016-05-21T11:54:19.969Z,1320
2016-05-21T11:55:20.112Z,1324
2016-05-21T11:56:19.975Z,1316
2016-05-21T11:57:20.165Z,1316
2016-05-21T11:58:20.120Z,1316
2016-05-21T11:59:19.983Z,1316
2016-05-21T12:00:20.141Z,1316
2016-05-21T12:01:20.144Z,1308
2016-05-21T12:02:20.005Z,1308
2016-05-21T12:03:20.150Z,1312
2016-05-21T12:04:20.153Z,1308
2016-05-21T12:05:20.171Z,1316
2016-05-21T12:06:20.157Z,1332
2016-05-21T12:07:20.160Z,1336
2016-05-21T12:08:20.179Z,1344
2016-05-21T12:09:20.025Z,1348
2016-05-21T12:10:20.185Z,1348
2016-05-21T12:11:20.015Z,1352
2016-05-21T12:12:20.549Z,1356
2016-05-21T12:13:20.176Z,1364
2016-05-21T12:14:20.195Z,1368
2016-05-21T12:15:20.198Z,1372
2016-05-21T12:16:20.185Z,1376
2016-05-21T12:17:20.203Z,1384
2016-05-21T12:18:20.206Z,1388
2016-05-21T12:19:20.209Z,1400
2016-05-21T12:20:20.211Z,1388
2016-05-21T12:21:20.198Z,1388
2016-05-21T12:22:20.217Z,1388
2016-05-21T12:23:20.203Z,1388
2016-05-21T12:24:19.909Z,1408
2016-05-21T12:25:20.209Z,1408
2016-05-21T12:26:20.086Z,1416
2016-05-21T12:27:20.276Z,1428
2016-05-21T12:28:20.248Z,1436
2016-05-21T12:29:20.250Z,1436
2016-05-21T12:30:20.253Z,1440
2016-05-21T12:31:20.256Z,1432
2016-05-21T12:32:20.244Z,1432
2016-05-21T12:33:20.247Z,1436
2016-05-21T12:34:20.264Z,1432
2016-05-21T12:35:20.095Z,1436
2016-05-21T12:36:20.097Z,1440
2016-05-21T12:37:20.257Z,1440
2016-05-21T12:38:20.118Z,1432
2016-05-21T12:39:20.278Z,1428
2016-05-21T12:40:20.265Z,1424
2016-05-21T12:41:20.298Z,1408
2016-05-21T12:42:19.989Z,1404
2016-05-21T12:43:20.288Z,1416
2016-05-21T12:44:20.291Z,1408
2016-05-21T12:45:20.279Z,1392
2016-05-21T12:46:20.140Z,1372
2016-05-21T12:47:20.284Z,1372
2016-05-21T12:48:20.161Z,1376
2016-05-21T12:49:20.304Z,1372
2016-05-21T12:50:20.323Z,1364
2016-05-21T12:51:20.310Z,1356
2016-05-21T12:52:20.313Z,1340
2016-05-21T12:53:20.331Z,1336
2016-05-21T12:54:20.334Z,1332
2016-05-21T12:55:20.320Z,1332
2016-05-21T12:56:20.323Z,1328
2016-05-21T12:57:20.389Z,1328
2016-05-21T12:58:20.328Z,1328
2016-05-21T12:59:20.331Z,1320
2016-05-21T13:00:20.209Z,1312
2016-05-21T13:01:20.337Z,1304
2016-05-21T13:02:20.355Z,1300
2016-05-21T13:03:20.358Z,1292
2016-05-21T13:04:20.345Z,1280
2016-05-21T13:05:20.363Z,1276
2016-05-21T13:06:20.366Z,1272
2016-05-21T13:07:20.196Z,1260
2016-05-21T13:08:20.371Z,1252
2016-05-21T13:09:20.389Z,1228
2016-05-21T13:10:20.377Z,1232
2016-05-21T13:11:20.395Z,1212
2016-05-21T13:12:20.397Z,1212
2016-05-21T13:13:20.385Z,1196
2016-05-21T13:14:20.231Z,1204
2016-05-21T13:15:20.391Z,1204
2016-05-21T13:16:20.392Z,1208
2016-05-21T13:17:20.395Z,1204
2016-05-21T13:18:20.257Z,1212
2016-05-21T13:19:20.416Z,1196
2016-05-21T13:20:20.404Z,1204
2016-05-21T13:21:20.421Z,1216
2016-05-21T13:22:20.424Z,1232
2016-05-21T13:23:20.412Z,1248
2016-05-21T13:24:20.414Z,1272
2016-05-21T13:25:20.417Z,1296
2016-05-21T13:26:20.420Z,1320
2016-05-21T13:27:20.469Z,1336
2016-05-21T13:28:20.425Z,1364
2016-05-21T13:29:20.428Z,1376
2016-05-21T13:30:20.446Z,1392
2016-05-21T13:31:20.449Z,1404
2016-05-21T13:32:20.295Z,1416
2016-05-21T13:33:20.453Z,1424